sensor_id;sensor_type;location;lat;lon;timestamp;pressure;altitude;pressure_sealevel;temperature;humidity
30724;BME280;17473;52.286;20.930;2023-03-04T00:00:30;99973.88;;;2.48;75.47
30724;BME280;17473;52.286;20.930;2023-03-04T00:02:57;99973.06;;;2.49;75.22
30724;BME280;17473;52.286;20.930;2023-03-04T00:05:24;99972.97;;;2.47;75.54
30724;BME280;17473;52.286;20.930;2023-03-04T00:07:51;99964.63;;;2.53;75.38
30724;BME280;17473;52.286;20.930;2023-03-04T00:10:18;99979.19;;;2.49;75.72
30724;BME280;17473;52.286;20.930;2023-03-04T00:12:46;99973.53;;;2.42;75.97
30724;BME280;17473;52.286;20.930;2023-03-04T00:15:13;99973.59;;;2.43;75.76
30724;BME280;17473;52.286;20.930;2023-03-04T00:17:41;99957.88;;;2.42;75.99
30724;BME280;17473;52.286;20.930;2023-03-04T00:20:09;99961.94;;;2.52;75.93
30724;BME280;17473;52.286;20.930;2023-03-04T00:22:36;99959.78;;;2.44;76.26
30724;BME280;17473;52.286;20.930;2023-03-04T00:25:04;99947.97;;;2.51;76.20
30724;BME280;17473;52.286;20.930;2023-03-04T00:27:31;99949.63;;;2.49;76.16
30724;BME280;17473;52.286;20.930;2023-03-04T00:29:58;99947.16;;;2.52;75.81
30724;BME280;17473;52.286;20.930;2023-03-04T00:32:26;99945.03;;;2.45;76.36
30724;BME280;17473;52.286;20.930;2023-03-04T00:34:53;99932.97;;;2.47;76.21
30724;BME280;17473;52.286;20.930;2023-03-04T00:37:20;99925.69;;;2.41;76.63
30724;BME280;17473;52.286;20.930;2023-03-04T00:39:47;99923.16;;;2.43;76.72
30724;BME280;17473;52.286;20.930;2023-03-04T00:42:15;99917.63;;;2.52;76.58
30724;BME280;17473;52.286;20.930;2023-03-04T00:44:42;99915.81;;;2.50;76.16
30724;BME280;17473;52.286;20.930;2023-03-04T00:47:09;99918.16;;;2.46;76.76
30724;BME280;17473;52.286;20.930;2023-03-04T00:49:36;99910.53;;;2.49;76.50
30724;BME280;17473;52.286;20.930;2023-03-04T00:52:03;99905.84;;;2.43;77.11
30724;BME280;17473;52.286;20.930;2023-03-04T00:54:31;99909.44;;;2.45;76.88
30724;BME280;17473;52.286;20.930;2023-03-04T00:56:58;99908.44;;;2.43;77.00
30724;BME280;17473;52.286;20.930;2023-03-04T00:59:25;99897.22;;;2.59;76.37
30724;BME280;17473;52.286;20.930;2023-03-04T01:01:52;99888.22;;;2.54;76.56
30724;BME280;17473;52.286;20.930;2023-03-04T01:04:19;99891.16;;;2.60;76.31
30724;BME280;17473;52.286;20.930;2023-03-04T01:06:47;99879.50;;;2.54;76.64
30724;BME280;17473;52.286;20.930;2023-03-04T01:09:14;99872.16;;;2.46;76.99
30724;BME280;17473;52.286;20.930;2023-03-04T01:11:41;99865.84;;;2.43;77.08
30724;BME280;17473;52.286;20.930;2023-03-04T01:14:09;99865.50;;;2.37;77.43
30724;BME280;17473;52.286;20.930;2023-03-04T01:16:36;99858.13;;;2.44;77.36
30724;BME280;17473;52.286;20.930;2023-03-04T01:19:03;99855.97;;;2.37;77.41
30724;BME280;17473;52.286;20.930;2023-03-04T01:21:30;99842.13;;;2.38;77.24
30724;BME280;17473;52.286;20.930;2023-03-04T01:23:57;99821.72;;;2.46;76.97
30724;BME280;17473;52.286;20.930;2023-03-04T01:26:24;99819.75;;;2.42;76.92
30724;BME280;17473;52.286;20.930;2023-03-04T01:28:52;99809.50;;;2.30;77.14
30724;BME280;17473;52.286;20.930;2023-03-04T01:31:19;99788.59;;;2.28;77.36
30724;BME280;17473;52.286;20.930;2023-03-04T01:33:46;99790.31;;;2.28;77.49
30724;BME280;17473;52.286;20.930;2023-03-04T01:36:13;99794.53;;;2.26;77.50
30724;BME280;17473;52.286;20.930;2023-03-04T01:38:40;99784.97;;;2.26;77.35
30724;BME280;17473;52.286;20.930;2023-03-04T01:41:07;99778.88;;;2.26;77.59
30724;BME280;17473;52.286;20.930;2023-03-04T01:43:36;99775.75;;;2.31;77.22
30724;BME280;17473;52.286;20.930;2023-03-04T01:46:05;99780.50;;;2.24;77.34
30724;BME280;17473;52.286;20.930;2023-03-04T01:48:36;99773.56;;;2.24;77.53
30724;BME280;17473;52.286;20.930;2023-03-04T01:51:08;99772.50;;;2.21;77.85
30724;BME280;17473;52.286;20.930;2023-03-04T01:53:37;99756.84;;;2.35;77.38
30724;BME280;17473;52.286;20.930;2023-03-04T01:56:35;99759.59;;;2.22;77.93
30724;BME280;17473;52.286;20.930;2023-03-04T01:59:17;99740.94;;;2.31;77.56
30724;BME280;17473;52.286;20.930;2023-03-04T02:01:51;99738.53;;;2.34;77.14
30724;BME280;17473;52.286;20.930;2023-03-04T02:04:26;99720.09;;;2.31;77.44
30724;BME280;17473;52.286;20.930;2023-03-04T02:06:55;99740.22;;;2.33;77.50
30724;BME280;17473;52.286;20.930;2023-03-04T02:09:23;99738.88;;;2.40;77.02
30724;BME280;17473;52.286;20.930;2023-03-04T02:11:51;99737.72;;;2.35;77.40
30724;BME280;17473;52.286;20.930;2023-03-04T02:14:20;99739.25;;;2.31;78.09
30724;BME280;17473;52.286;20.930;2023-03-04T02:17:15;99730.91;;;2.37;77.92
30724;BME280;17473;52.286;20.930;2023-03-04T02:20:12;99733.41;;;2.35;78.08
30724;BME280;17473;52.286;20.930;2023-03-04T02:23:29;99729.88;;;2.50;77.76
30724;BME280;17473;52.286;20.930;2023-03-04T02:26:27;99738.50;;;2.49;78.02
30724;BME280;17473;52.286;20.930;2023-03-04T02:28:57;99745.00;;;2.41;78.31
30724;BME280;17473;52.286;20.930;2023-03-04T02:31:53;99740.59;;;2.40;78.37
30724;BME280;17473;52.286;20.930;2023-03-04T02:34:49;99733.53;;;2.54;78.17
30724;BME280;17473;52.286;20.930;2023-03-04T02:37:44;99733.69;;;2.57;77.90
30724;BME280;17473;52.286;20.930;2023-03-04T02:40:33;99726.81;;;2.42;78.70
30724;BME280;17473;52.286;20.930;2023-03-04T02:43:28;99740.59;;;2.40;79.18
30724;BME280;17473;52.286;20.930;2023-03-04T02:46:23;99729.44;;;2.42;79.27
30724;BME280;17473;52.286;20.930;2023-03-04T02:49:19;99727.88;;;2.46;79.57
30724;BME280;17473;52.286;20.930;2023-03-04T02:52:18;99723.25;;;2.57;78.98
30724;BME280;17473;52.286;20.930;2023-03-04T02:55:13;99724.66;;;2.50;79.32
30724;BME280;17473;52.286;20.930;2023-03-04T02:58:13;99728.47;;;2.57;79.09
30724;BME280;17473;52.286;20.930;2023-03-04T03:00:41;99722.88;;;2.65;79.04
30724;BME280;17473;52.286;20.930;2023-03-04T03:03:35;99719.28;;;2.63;78.97
30724;BME280;17473;52.286;20.930;2023-03-04T03:06:30;99723.81;;;2.51;79.55
30724;BME280;17473;52.286;20.930;2023-03-04T03:09:25;99716.66;;;2.47;79.65
30724;BME280;17473;52.286;20.930;2023-03-04T03:12:19;99714.38;;;2.53;79.74
30724;BME280;17473;52.286;20.930;2023-03-04T03:15:14;99718.31;;;2.61;79.58
30724;BME280;17473;52.286;20.930;2023-03-04T03:18:09;99710.22;;;2.57;79.29
30724;BME280;17473;52.286;20.930;2023-03-04T03:20:37;99706.34;;;2.65;79.46
30724;BME280;17473;52.286;20.930;2023-03-04T03:23:04;99711.09;;;2.72;79.00
30724;BME280;17473;52.286;20.930;2023-03-04T03:25:59;99701.53;;;2.73;79.03
30724;BME280;17473;52.286;20.930;2023-03-04T03:28:53;99697.06;;;2.70;78.82
30724;BME280;17473;52.286;20.930;2023-03-04T03:31:48;99704.81;;;2.69;79.04
30724;BME280;17473;52.286;20.930;2023-03-04T03:34:42;99701.47;;;2.71;78.93
30724;BME280;17473;52.286;20.930;2023-03-04T03:37:36;99696.59;;;2.77;78.98
30724;BME280;17473;52.286;20.930;2023-03-04T03:40:31;99687.88;;;2.77;78.59
30724;BME280;17473;52.286;20.930;2023-03-04T03:43:26;99686.31;;;2.80;78.52
30724;BME280;17473;52.286;20.930;2023-03-04T03:46:20;99682.06;;;2.82;78.42
30724;BME280;17473;52.286;20.930;2023-03-04T03:49:15;99687.28;;;2.82;78.50
30724;BME280;17473;52.286;20.930;2023-03-04T03:52:10;99680.38;;;2.83;78.79
30724;BME280;17473;52.286;20.930;2023-03-04T03:55:37;99681.50;;;2.88;78.41
30724;BME280;17473;52.286;20.930;2023-03-04T04:29:49;99662.09;;;3.00;78.24
30724;BME280;17473;52.286;20.930;2023-03-04T04:32:16;99659.25;;;3.11;77.85
30724;BME280;17473;52.286;20.930;2023-03-04T04:34:44;99659.44;;;2.98;78.04
30724;BME280;17473;52.286;20.930;2023-03-04T04:37:11;99658.50;;;2.97;78.21
30724;BME280;17473;52.286;20.930;2023-03-04T04:40:06;99656.16;;;3.02;77.59
30724;BME280;17473;52.286;20.930;2023-03-04T04:43:01;99653.88;;;3.08;77.62
30724;BME280;17473;52.286;20.930;2023-03-04T04:45:58;99651.84;;;3.03;77.82
30724;BME280;17473;52.286;20.930;2023-03-04T04:48:25;99650.06;;;3.02;77.94
30724;BME280;17473;52.286;20.930;2023-03-04T04:51:20;99647.50;;;3.03;77.67
30724;BME280;17473;52.286;20.930;2023-03-04T04:53:48;99645.22;;;3.09;77.62
30724;BME280;17473;52.286;20.930;2023-03-04T04:56:42;99643.34;;;3.07;77.62
30724;BME280;17473;52.286;20.930;2023-03-04T05:00:09;99645.72;;;3.02;77.81
30724;BME280;17473;52.286;20.930;2023-03-04T05:02:37;99654.03;;;3.11;77.44
30724;BME280;17473;52.286;20.930;2023-03-04T05:05:05;99648.75;;;3.10;77.34
30724;BME280;17473;52.286;20.930;2023-03-04T05:08:00;99638.59;;;3.16;77.13
30724;BME280;17473;52.286;20.930;2023-03-04T05:10:55;99633.63;;;3.21;76.96
30724;BME280;17473;52.286;20.930;2023-03-04T05:13:49;99634.59;;;3.23;76.73
30724;BME280;17473;52.286;20.930;2023-03-04T05:16:45;99634.06;;;3.12;77.17
30724;BME280;17473;52.286;20.930;2023-03-04T05:19:39;99628.66;;;3.25;76.57
30724;BME280;17473;52.286;20.930;2023-03-04T05:22:34;99624.47;;;3.29;76.31
30724;BME280;17473;52.286;20.930;2023-03-04T05:25:28;99605.91;;;3.23;76.61
30724;BME280;17473;52.286;20.930;2023-03-04T05:28:24;99617.66;;;3.15;76.81
30724;BME280;17473;52.286;20.930;2023-03-04T05:31:18;99627.19;;;3.31;76.16
30724;BME280;17473;52.286;20.930;2023-03-04T05:33:46;99611.53;;;3.31;76.27
30724;BME280;17473;52.286;20.930;2023-03-04T05:36:40;99614.53;;;3.22;76.70
30724;BME280;17473;52.286;20.930;2023-03-04T05:39:08;99620.00;;;3.26;76.41
30724;BME280;17473;52.286;20.930;2023-03-04T05:42:02;99626.28;;;3.30;76.38
30724;BME280;17473;52.286;20.930;2023-03-04T05:44:29;99619.72;;;3.38;75.98
30724;BME280;17473;52.286;20.930;2023-03-04T05:47:24;99619.41;;;3.32;76.29
30724;BME280;17473;52.286;20.930;2023-03-04T05:50:20;99621.03;;;3.30;76.26
30724;BME280;17473;52.286;20.930;2023-03-04T05:53:15;99614.19;;;3.32;76.38
30724;BME280;17473;52.286;20.930;2023-03-04T05:56:16;99616.28;;;3.39;76.23
30724;BME280;17473;52.286;20.930;2023-03-04T05:59:11;99607.34;;;3.34;76.61
30724;BME280;17473;52.286;20.930;2023-03-04T06:02:38;99596.97;;;3.36;76.60
30724;BME280;17473;52.286;20.930;2023-03-04T06:05:07;99598.56;;;3.50;76.21
30724;BME280;17473;52.286;20.930;2023-03-04T06:07:35;99591.34;;;3.44;76.08
30724;BME280;17473;52.286;20.930;2023-03-04T06:10:03;99587.34;;;3.35;76.66
30724;BME280;17473;52.286;20.930;2023-03-04T06:12:31;99585.09;;;3.24;77.28
30724;BME280;17473;52.286;20.930;2023-03-04T06:14:58;99586.25;;;3.29;77.07
30724;BME280;17473;52.286;20.930;2023-03-04T06:17:25;99570.66;;;3.31;77.03
30724;BME280;17473;52.286;20.930;2023-03-04T06:19:52;99578.88;;;3.39;76.91
30724;BME280;17473;52.286;20.930;2023-03-04T06:22:19;99570.41;;;3.26;77.45
30724;BME280;17473;52.286;20.930;2023-03-04T06:24:47;99583.47;;;3.26;77.48
30724;BME280;17473;52.286;20.930;2023-03-04T06:27:14;99584.16;;;3.22;77.81
30724;BME280;17473;52.286;20.930;2023-03-04T06:29:42;99579.66;;;3.20;77.88
30724;BME280;17473;52.286;20.930;2023-03-04T06:32:09;99579.97;;;3.26;77.79
30724;BME280;17473;52.286;20.930;2023-03-04T06:34:37;99585.56;;;3.34;77.77
30724;BME280;17473;52.286;20.930;2023-03-04T06:37:04;99577.50;;;3.29;78.05
30724;BME280;17473;52.286;20.930;2023-03-04T06:39:31;99581.03;;;3.29;77.78
30724;BME280;17473;52.286;20.930;2023-03-04T06:41:59;99577.03;;;3.20;78.45
30724;BME280;17473;52.286;20.930;2023-03-04T06:44:26;99574.31;;;3.35;77.96
30724;BME280;17473;52.286;20.930;2023-03-04T06:46:53;99577.59;;;3.31;78.03
30724;BME280;17473;52.286;20.930;2023-03-04T06:49:20;99581.38;;;3.37;78.06
30724;BME280;17473;52.286;20.930;2023-03-04T06:51:47;99575.34;;;3.38;77.90
30724;BME280;17473;52.286;20.930;2023-03-04T06:54:15;99581.84;;;3.47;77.79
30724;BME280;17473;52.286;20.930;2023-03-04T06:56:42;99585.06;;;3.59;77.68
30724;BME280;17473;52.286;20.930;2023-03-04T06:59:09;99575.91;;;3.49;77.59
30724;BME280;17473;52.286;20.930;2023-03-04T07:01:36;99578.66;;;3.52;77.62
30724;BME280;17473;52.286;20.930;2023-03-04T07:04:04;99575.50;;;3.41;78.28
30724;BME280;17473;52.286;20.930;2023-03-04T07:06:31;99578.78;;;3.37;78.34
30724;BME280;17473;52.286;20.930;2023-03-04T07:08:59;99575.81;;;3.29;78.49
30724;BME280;17473;52.286;20.930;2023-03-04T07:11:26;99581.38;;;3.37;78.56
30724;BME280;17473;52.286;20.930;2023-03-04T07:13:53;99581.47;;;3.39;78.58
30724;BME280;17473;52.286;20.930;2023-03-04T07:16:22;99584.63;;;3.50;78.01
30724;BME280;17473;52.286;20.930;2023-03-04T07:18:50;99581.94;;;3.48;78.12
30724;BME280;17473;52.286;20.930;2023-03-04T07:21:17;99577.75;;;3.52;78.08
30724;BME280;17473;52.286;20.930;2023-03-04T07:23:45;99582.28;;;3.56;77.81
30724;BME280;17473;52.286;20.930;2023-03-04T07:26:12;99578.97;;;3.58;77.63
30724;BME280;17473;52.286;20.930;2023-03-04T07:28:40;99575.72;;;3.64;77.33
30724;BME280;17473;52.286;20.930;2023-03-04T07:31:23;99581.06;;;3.66;77.22
30724;BME280;17473;52.286;20.930;2023-03-04T07:33:51;99573.13;;;3.64;77.36
30724;BME280;17473;52.286;20.930;2023-03-04T07:36:18;99566.19;;;3.65;77.30
30724;BME280;17473;52.286;20.930;2023-03-04T07:38:48;99565.38;;;3.66;77.27
30724;BME280;17473;52.286;20.930;2023-03-04T07:41:43;99560.88;;;3.63;77.56
30724;BME280;17473;52.286;20.930;2023-03-04T07:44:38;99558.09;;;3.58;77.53
30724;BME280;17473;52.286;20.930;2023-03-04T07:47:32;99567.69;;;3.59;77.50
30724;BME280;17473;52.286;20.930;2023-03-04T07:50:26;99557.69;;;3.69;77.12
30724;BME280;17473;52.286;20.930;2023-03-04T07:53:21;99559.41;;;3.68;76.93
30724;BME280;17473;52.286;20.930;2023-03-04T07:56:21;99554.78;;;3.81;76.30
30724;BME280;17473;52.286;20.930;2023-03-04T07:59:16;99539.47;;;3.88;76.10
30724;BME280;17473;52.286;20.930;2023-03-04T08:02:10;99545.88;;;3.95;75.75
30724;BME280;17473;52.286;20.930;2023-03-04T08:05:06;99544.34;;;4.00;75.13
30724;BME280;17473;52.286;20.930;2023-03-04T08:08:05;99543.47;;;4.00;75.46
30724;BME280;17473;52.286;20.930;2023-03-04T08:10:32;99547.44;;;3.91;75.47
30724;BME280;17473;52.286;20.930;2023-03-04T08:13:00;99539.72;;;3.75;76.03
30724;BME280;17473;52.286;20.930;2023-03-04T08:15:27;99540.66;;;3.77;76.06
30724;BME280;17473;52.286;20.930;2023-03-04T08:18:21;99544.69;;;3.88;75.86
30724;BME280;17473;52.286;20.930;2023-03-04T08:21:18;99537.38;;;3.81;75.88
30724;BME280;17473;52.286;20.930;2023-03-04T08:23:46;99532.44;;;3.87;75.46
30724;BME280;17473;52.286;20.930;2023-03-04T08:26:24;99538.84;;;3.94;75.19
30724;BME280;17473;52.286;20.930;2023-03-04T08:29:23;99532.75;;;3.94;75.28
30724;BME280;17473;52.286;20.930;2023-03-04T08:31:57;99538.19;;;3.98;74.92
30724;BME280;17473;52.286;20.930;2023-03-04T08:34:52;99538.31;;;4.01;74.94
30724;BME280;17473;52.286;20.930;2023-03-04T08:37:49;99535.44;;;3.95;75.02
30724;BME280;17473;52.286;20.930;2023-03-04T08:40:16;99527.97;;;4.03;74.77
30724;BME280;17473;52.286;20.930;2023-03-04T08:42:43;99525.19;;;4.00;75.06
30724;BME280;17473;52.286;20.930;2023-03-04T08:45:11;99530.41;;;4.00;74.94
30724;BME280;17473;52.286;20.930;2023-03-04T08:47:38;99536.69;;;4.03;74.67
30724;BME280;17473;52.286;20.930;2023-03-04T08:50:07;99534.13;;;4.05;74.70
30724;BME280;17473;52.286;20.930;2023-03-04T08:52:35;99528.16;;;4.07;74.61
30724;BME280;17473;52.286;20.930;2023-03-04T08:55:02;99531.59;;;4.06;74.76
30724;BME280;17473;52.286;20.930;2023-03-04T08:57:29;99517.94;;;4.12;74.52
30724;BME280;17473;52.286;20.930;2023-03-04T08:59:57;99521.28;;;4.10;74.75
30724;BME280;17473;52.286;20.930;2023-03-04T09:02:24;99504.16;;;4.16;74.29
30724;BME280;17473;52.286;20.930;2023-03-04T09:04:51;99503.13;;;4.13;74.88
30724;BME280;17473;52.286;20.930;2023-03-04T09:07:18;99514.41;;;4.12;74.32
30724;BME280;17473;52.286;20.930;2023-03-04T09:09:45;99505.47;;;4.06;74.58
30724;BME280;17473;52.286;20.930;2023-03-04T09:12:12;99502.53;;;4.18;74.51
30724;BME280;17473;52.286;20.930;2023-03-04T09:14:39;99503.69;;;4.25;74.13
30724;BME280;17473;52.286;20.930;2023-03-04T09:17:06;99493.03;;;4.20;74.33
30724;BME280;17473;52.286;20.930;2023-03-04T09:19:35;99495.09;;;4.28;74.05
30724;BME280;17473;52.286;20.930;2023-03-04T09:22:02;99493.00;;;4.40;74.10
30724;BME280;17473;52.286;20.930;2023-03-04T09:24:29;99493.34;;;4.48;73.25
30724;BME280;17473;52.286;20.930;2023-03-04T09:26:56;99505.47;;;4.46;73.45
30724;BME280;17473;52.286;20.930;2023-03-04T09:29:24;99507.75;;;4.38;73.73
30724;BME280;17473;52.286;20.930;2023-03-04T09:31:51;99501.00;;;4.43;74.07
30724;BME280;17473;52.286;20.930;2023-03-04T09:34:18;99488.75;;;4.42;73.63
30724;BME280;17473;52.286;20.930;2023-03-04T09:36:45;99493.88;;;4.39;73.81
30724;BME280;17473;52.286;20.930;2023-03-04T09:39:12;99492.91;;;4.37;74.05
30724;BME280;17473;52.286;20.930;2023-03-04T09:41:44;99483.88;;;4.30;74.30
30724;BME280;17473;52.286;20.930;2023-03-04T09:44:34;99487.38;;;4.31;74.21
30724;BME280;17473;52.286;20.930;2023-03-04T09:47:09;99480.09;;;4.23;74.54
30724;BME280;17473;52.286;20.930;2023-03-04T09:49:40;99487.72;;;4.19;74.80
30724;BME280;17473;52.286;20.930;2023-03-04T09:55:12;99480.25;;;4.27;74.49
30724;BME280;17473;52.286;20.930;2023-03-04T09:58:05;99480.50;;;4.33;74.39
30724;BME280;17473;52.286;20.930;2023-03-04T10:00:44;99476.66;;;4.44;74.07
30724;BME280;17473;52.286;20.930;2023-03-04T10:06:09;99469.97;;;4.51;73.93
30724;BME280;17473;52.286;20.930;2023-03-04T10:09:08;99473.53;;;4.53;74.03
30724;BME280;17473;52.286;20.930;2023-03-04T10:11:47;99468.44;;;4.56;73.99
30724;BME280;17473;52.286;20.930;2023-03-04T10:17:04;99458.81;;;4.55;74.10
30724;BME280;17473;52.286;20.930;2023-03-04T10:20:21;99457.00;;;4.54;74.24
30724;BME280;17473;52.286;20.930;2023-03-04T10:22:52;99448.50;;;4.58;74.08
30724;BME280;17473;52.286;20.930;2023-03-04T10:28:03;99455.53;;;4.80;73.29
30724;BME280;17473;52.286;20.930;2023-03-04T10:33:18;99440.03;;;4.85;73.13
30724;BME280;17473;52.286;20.930;2023-03-04T10:38:45;99442.13;;;4.73;74.16
30724;BME280;17473;52.286;20.930;2023-03-04T10:41:20;99422.97;;;4.95;73.59
30724;BME280;17473;52.286;20.930;2023-03-04T10:46:46;99432.59;;;4.96;74.48
30724;BME280;17473;52.286;20.930;2023-03-04T10:49:16;99424.84;;;4.97;74.53
30724;BME280;17473;52.286;20.930;2023-03-04T10:54:58;99424.13;;;5.01;75.04
30724;BME280;17473;52.286;20.930;2023-03-04T10:57:37;99427.50;;;4.99;75.40
30724;BME280;17473;52.286;20.930;2023-03-04T11:00:40;99417.75;;;4.95;76.04
30724;BME280;17473;52.286;20.930;2023-03-04T11:03:34;99407.91;;;4.89;76.65
30724;BME280;17473;52.286;20.930;2023-03-04T11:06:21;99413.91;;;4.86;76.96
30724;BME280;17473;52.286;20.930;2023-03-04T11:08:58;99411.56;;;4.93;77.16
30724;BME280;17473;52.286;20.930;2023-03-04T11:11:42;99411.91;;;5.02;77.01
30724;BME280;17473;52.286;20.930;2023-03-04T11:14:40;99417.50;;;4.89;78.10
30724;BME280;17473;52.286;20.930;2023-03-04T11:17:29;99412.25;;;4.89;78.54
30724;BME280;17473;52.286;20.930;2023-03-04T11:20:17;99409.78;;;4.92;78.87
30724;BME280;17473;52.286;20.930;2023-03-04T11:22:49;99414.22;;;5.15;78.33
30724;BME280;17473;52.286;20.930;2023-03-04T11:25:37;99413.59;;;5.00;79.04
30724;BME280;17473;52.286;20.930;2023-03-04T11:31:27;99400.75;;;5.06;78.91
30724;BME280;17473;52.286;20.930;2023-03-04T11:34:02;99398.28;;;5.09;79.03
30724;BME280;17473;52.286;20.930;2023-03-04T11:36:59;99397.38;;;5.09;79.21
30724;BME280;17473;52.286;20.930;2023-03-04T11:45:15;99394.84;;;5.10;79.29
30724;BME280;17473;52.286;20.930;2023-03-04T11:50:56;99389.91;;;4.97;80.25
30724;BME280;17473;52.286;20.930;2023-03-04T11:53:36;99393.41;;;5.19;80.00
30724;BME280;17473;52.286;20.930;2023-03-04T11:56:36;99388.81;;;5.36;79.18
30724;BME280;17473;52.286;20.930;2023-03-04T12:02:35;99394.50;;;5.46;79.32
30724;BME280;17473;52.286;20.930;2023-03-04T12:11:00;99402.91;;;5.39;79.71
30724;BME280;17473;52.286;20.930;2023-03-04T12:16:34;99401.13;;;5.38;79.80
30724;BME280;17473;52.286;20.930;2023-03-04T12:21:58;99394.72;;;5.53;80.00
30724;BME280;17473;52.286;20.930;2023-03-04T12:30:54;99390.06;;;5.92;78.90
30724;BME280;17473;52.286;20.930;2023-03-04T12:37:05;99385.22;;;6.28;77.63
30724;BME280;17473;52.286;20.930;2023-03-04T12:46:14;99375.06;;;6.63;76.07
30724;BME280;17473;52.286;20.930;2023-03-04T12:49:25;99380.47;;;6.67;75.84
30724;BME280;17473;52.286;20.930;2023-03-04T12:54:40;99375.69;;;6.81;75.13
30724;BME280;17473;52.286;20.930;2023-03-04T12:57:18;99361.22;;;6.94;74.47
30724;BME280;17473;52.286;20.930;2023-03-04T13:03:25;99370.19;;;7.01;73.46
30724;BME280;17473;52.286;20.930;2023-03-04T13:14:38;99348.38;;;7.61;71.38
30724;BME280;17473;52.286;20.930;2023-03-04T13:17:53;99355.66;;;7.72;70.84
30724;BME280;17473;52.286;20.930;2023-03-04T13:20:39;99358.22;;;7.68;70.78
30724;BME280;17473;52.286;20.930;2023-03-04T13:28:25;99351.41;;;7.75;70.18
30724;BME280;17473;52.286;20.930;2023-03-04T13:41:22;99423.03;;;6.08;72.80
30724;BME280;17473;52.286;20.930;2023-03-04T13:44:01;99407.16;;;6.30;72.19
30724;BME280;17473;52.286;20.930;2023-03-04T13:46:42;99417.03;;;6.13;72.69
30724;BME280;17473;52.286;20.930;2023-03-04T13:49:21;99398.31;;;6.02;72.73
30724;BME280;17473;52.286;20.930;2023-03-04T13:51:51;99379.44;;;5.88;71.38
30724;BME280;17473;52.286;20.930;2023-03-04T13:54:30;99379.25;;;5.83;71.37
30724;BME280;17473;52.286;20.930;2023-03-04T13:59:55;99370.34;;;5.78;70.93
30724;BME280;17473;52.286;20.930;2023-03-04T14:02:24;99369.09;;;5.68;70.91
30724;BME280;17473;52.286;20.930;2023-03-04T14:05:00;99356.56;;;5.84;70.34
30724;BME280;17473;52.286;20.930;2023-03-04T14:07:36;99364.19;;;6.00;69.28
30724;BME280;17473;52.286;20.930;2023-03-04T14:13:02;99367.03;;;6.06;68.64
30724;BME280;17473;52.286;20.930;2023-03-04T14:15:30;99363.75;;;5.89;68.76
30724;BME280;17473;52.286;20.930;2023-03-04T14:18:02;99361.56;;;6.00;68.80
30724;BME280;17473;52.286;20.930;2023-03-04T14:20:47;99361.16;;;6.14;68.35
30724;BME280;17473;52.286;20.930;2023-03-04T14:23:44;99373.13;;;6.31;67.10
30724;BME280;17473;52.286;20.930;2023-03-04T14:26:17;99366.06;;;6.04;67.04
30724;BME280;17473;52.286;20.930;2023-03-04T14:28:50;99366.44;;;5.91;67.82
30724;BME280;17473;52.286;20.930;2023-03-04T14:31:21;99378.69;;;5.92;67.55
30724;BME280;17473;52.286;20.930;2023-03-04T14:33:54;99373.56;;;5.95;67.40
30724;BME280;17473;52.286;20.930;2023-03-04T14:36:26;99382.00;;;6.10;67.16
30724;BME280;17473;52.286;20.930;2023-03-04T14:39:03;99380.53;;;6.19;66.89
30724;BME280;17473;52.286;20.930;2023-03-04T14:41:40;99380.88;;;6.28;66.36
30724;BME280;17473;52.286;20.930;2023-03-04T14:44:34;99383.78;;;6.36;65.74
30724;BME280;17473;52.286;20.930;2023-03-04T14:47:38;99383.31;;;6.23;65.57
30724;BME280;17473;52.286;20.930;2023-03-04T14:50:15;99379.38;;;6.10;65.59
30724;BME280;17473;52.286;20.930;2023-03-04T14:53:24;99384.53;;;6.07;65.07
30724;BME280;17473;52.286;20.930;2023-03-04T14:56:05;99396.56;;;6.02;63.57
30724;BME280;17473;52.286;20.930;2023-03-04T14:58:50;99386.06;;;6.02;62.98
30724;BME280;17473;52.286;20.930;2023-03-04T15:01:21;99395.97;;;5.87;62.44
30724;BME280;17473;52.286;20.930;2023-03-04T15:04:10;99404.56;;;5.83;61.84
30724;BME280;17473;52.286;20.930;2023-03-04T15:06:49;99404.22;;;5.73;60.84
30724;BME280;17473;52.286;20.930;2023-03-04T15:09:24;99404.09;;;5.70;59.60
30724;BME280;17473;52.286;20.930;2023-03-04T15:12:01;99414.53;;;5.69;58.66
30724;BME280;17473;52.286;20.930;2023-03-04T15:14:48;99426.84;;;5.71;58.44
30724;BME280;17473;52.286;20.930;2023-03-04T15:17:37;99419.41;;;5.59;57.81
30724;BME280;17473;52.286;20.930;2023-03-04T15:25:15;99443.97;;;5.40;56.20
30724;BME280;17473;52.286;20.930;2023-03-04T15:27:47;99439.00;;;5.25;54.37
30724;BME280;17473;52.286;20.930;2023-03-04T15:30:26;99456.19;;;5.40;52.07
30724;BME280;17473;52.286;20.930;2023-03-04T15:32:58;99457.53;;;5.30;50.59
30724;BME280;17473;52.286;20.930;2023-03-04T15:35:31;99477.25;;;5.22;49.21
30724;BME280;17473;52.286;20.930;2023-03-04T15:38:00;99479.94;;;5.02;47.94
30724;BME280;17473;52.286;20.930;2023-03-04T15:40:37;99488.38;;;4.95;47.17
30724;BME280;17473;52.286;20.930;2023-03-04T15:43:06;99492.78;;;4.96;46.61
30724;BME280;17473;52.286;20.930;2023-03-04T15:45:37;99497.06;;;4.94;46.71
30724;BME280;17473;52.286;20.930;2023-03-04T15:48:09;99508.66;;;4.79;47.02
30724;BME280;17473;52.286;20.930;2023-03-04T15:50:58;99517.97;;;4.73;46.88
30724;BME280;17473;52.286;20.930;2023-03-04T15:53:36;99521.41;;;4.72;46.80
30724;BME280;17473;52.286;20.930;2023-03-04T15:56:06;99528.94;;;4.64;46.92
30724;BME280;17473;52.286;20.930;2023-03-04T15:58:35;99528.22;;;4.48;47.12
30724;BME280;17473;52.286;20.930;2023-03-04T16:01:02;99544.41;;;4.59;45.89
30724;BME280;17473;52.286;20.930;2023-03-04T16:03:29;99555.34;;;4.50;45.85
30724;BME280;17473;52.286;20.930;2023-03-04T16:05:58;99558.25;;;4.37;45.65
30724;BME280;17473;52.286;20.930;2023-03-04T16:08:25;99562.44;;;4.33;45.18
30724;BME280;17473;52.286;20.930;2023-03-04T16:10:52;99557.59;;;4.23;44.85
30724;BME280;17473;52.286;20.930;2023-03-04T16:13:22;99577.34;;;4.16;44.65
30724;BME280;17473;52.286;20.930;2023-03-04T16:15:50;99573.31;;;4.05;44.49